sensor_id;sensor_type;location;lat;lon;timestamp;P1;durP1;ratioP1;P2;durP2;ratioP2
21786;SDS011;11055;50.870;4.316;2024-03-08T00:00:13;25.88;;;16.33;;
21786;SDS011;11055;50.870;4.316;2024-03-08T00:02:43;23.90;;;15.52;;
21786;SDS011;11055;50.870;4.316;2024-03-08T00:05:13;26.42;;;15.45;;
21786;SDS011;11055;50.870;4.316;2024-03-08T00:07:40;24.08;;;15.65;;
21786;SDS011;11055;50.870;4.316;2024-03-08T00:10:07;25.20;;;16.25;;
21786;SDS011;11055;50.870;4.316;2024-03-08T00:12:36;23.73;;;15.48;;
21786;SDS011;11055;50.870;4.316;2024-03-08T00:15:09;25.25;;;16.17;;
21786;SDS011;11055;50.870;4.316;2024-03-08T00:17:35;22.33;;;15.65;;
21786;SDS011;11055;50.870;4.316;2024-03-08T00:20:01;25.92;;;15.88;;
21786;SDS011;11055;50.870;4.316;2024-03-08T00:22:33;25.45;;;16.02;;
21786;SDS011;11055;50.870;4.316;2024-03-08T00:25:06;27.35;;;16.38;;
21786;SDS011;11055;50.870;4.316;2024-03-08T00:27:35;24.42;;;15.27;;
21786;SDS011;11055;50.870;4.316;2024-03-08T00:30:02;26.00;;;15.85;;
21786;SDS011;11055;50.870;4.316;2024-03-08T00:32:28;23.17;;;15.02;;
21786;SDS011;11055;50.870;4.316;2024-03-08T00:34:54;22.67;;;15.98;;
21786;SDS011;11055;50.870;4.316;2024-03-08T00:37:22;27.45;;;16.60;;
21786;SDS011;11055;50.870;4.316;2024-03-08T00:39:49;25.73;;;15.45;;
21786;SDS011;11055;50.870;4.316;2024-03-08T00:42:15;23.88;;;14.80;;
21786;SDS011;11055;50.870;4.316;2024-03-08T00:44:41;25.00;;;14.85;;
21786;SDS011;11055;50.870;4.316;2024-03-08T00:47:07;23.33;;;15.80;;
21786;SDS011;11055;50.870;4.316;2024-03-08T00:49:33;22.50;;;15.85;;
21786;SDS011;11055;50.870;4.316;2024-03-08T00:51:59;21.77;;;15.15;;
21786;SDS011;11055;50.870;4.316;2024-03-08T00:54:24;24.40;;;15.27;;
21786;SDS011;11055;50.870;4.316;2024-03-08T00:56:50;27.70;;;16.77;;
21786;SDS011;11055;50.870;4.316;2024-03-08T00:59:16;24.23;;;15.18;;
21786;SDS011;11055;50.870;4.316;2024-03-08T01:01:41;25.80;;;15.75;;
21786;SDS011;11055;50.870;4.316;2024-03-08T01:04:09;23.50;;;15.32;;
21786;SDS011;11055;50.870;4.316;2024-03-08T01:06:35;26.45;;;16.27;;
21786;SDS011;11055;50.870;4.316;2024-03-08T01:09:01;24.88;;;15.85;;
21786;SDS011;11055;50.870;4.316;2024-03-08T01:11:27;26.30;;;17.00;;
21786;SDS011;11055;50.870;4.316;2024-03-08T01:13:53;24.23;;;15.15;;
21786;SDS011;11055;50.870;4.316;2024-03-08T01:16:19;24.80;;;16.45;;
21786;SDS011;11055;50.870;4.316;2024-03-08T01:18:46;24.00;;;15.75;;
21786;SDS011;11055;50.870;4.316;2024-03-08T01:21:12;24.52;;;16.35;;
21786;SDS011;11055;50.870;4.316;2024-03-08T01:23:38;27.75;;;17.45;;
21786;SDS011;11055;50.870;4.316;2024-03-08T01:26:03;26.88;;;16.98;;
21786;SDS011;11055;50.870;4.316;2024-03-08T01:28:29;25.00;;;16.27;;
21786;SDS011;11055;50.870;4.316;2024-03-08T01:30:55;27.73;;;17.50;;
21786;SDS011;11055;50.870;4.316;2024-03-08T01:33:22;27.40;;;16.92;;
21786;SDS011;11055;50.870;4.316;2024-03-08T01:35:49;26.15;;;17.63;;
21786;SDS011;11055;50.870;4.316;2024-03-08T01:38:14;24.23;;;16.42;;
21786;SDS011;11055;50.870;4.316;2024-03-08T01:40:40;25.55;;;16.80;;
21786;SDS011;11055;50.870;4.316;2024-03-08T01:43:22;29.50;;;18.30;;
21786;SDS011;11055;50.870;4.316;2024-03-08T01:45:53;27.25;;;17.38;;
21786;SDS011;11055;50.870;4.316;2024-03-08T01:48:20;28.13;;;17.10;;
21786;SDS011;11055;50.870;4.316;2024-03-08T01:50:49;26.58;;;18.30;;
21786;SDS011;11055;50.870;4.316;2024-03-08T01:53:17;26.17;;;17.45;;
21786;SDS011;11055;50.870;4.316;2024-03-08T01:55:44;25.70;;;17.45;;
21786;SDS011;11055;50.870;4.316;2024-03-08T01:58:13;24.58;;;18.48;;
21786;SDS011;11055;50.870;4.316;2024-03-08T02:00:40;27.30;;;18.55;;
21786;SDS011;11055;50.870;4.316;2024-03-08T02:03:09;24.77;;;17.92;;
21786;SDS011;11055;50.870;4.316;2024-03-08T02:05:36;28.10;;;18.45;;
21786;SDS011;11055;50.870;4.316;2024-03-08T02:08:03;26.48;;;18.02;;
21786;SDS011;11055;50.870;4.316;2024-03-08T02:10:32;28.55;;;18.20;;
21786;SDS011;11055;50.870;4.316;2024-03-08T02:12:59;30.52;;;19.30;;
21786;SDS011;11055;50.870;4.316;2024-03-08T02:18:15;26.42;;;18.38;;
21786;SDS011;11055;50.870;4.316;2024-03-08T02:20:42;30.20;;;18.92;;
21786;SDS011;11055;50.870;4.316;2024-03-08T02:23:08;26.75;;;18.30;;
21786;SDS011;11055;50.870;4.316;2024-03-08T02:25:34;28.02;;;19.25;;
21786;SDS011;11055;50.870;4.316;2024-03-08T02:28:00;30.38;;;18.30;;
21786;SDS011;11055;50.870;4.316;2024-03-08T02:30:26;30.00;;;18.95;;
21786;SDS011;11055;50.870;4.316;2024-03-08T02:32:54;28.15;;;19.05;;
21786;SDS011;11055;50.870;4.316;2024-03-08T02:35:20;26.80;;;17.83;;
21786;SDS011;11055;50.870;4.316;2024-03-08T02:37:46;26.25;;;18.70;;
21786;SDS011;11055;50.870;4.316;2024-03-08T02:40:13;27.70;;;19.58;;
21786;SDS011;11055;50.870;4.316;2024-03-08T02:42:39;27.60;;;19.30;;
21786;SDS011;11055;50.870;4.316;2024-03-08T02:45:05;27.17;;;19.15;;
21786;SDS011;11055;50.870;4.316;2024-03-08T02:47:31;26.63;;;19.48;;
21786;SDS011;11055;50.870;4.316;2024-03-08T02:49:57;26.80;;;19.05;;
21786;SDS011;11055;50.870;4.316;2024-03-08T02:52:23;29.48;;;19.75;;
21786;SDS011;11055;50.870;4.316;2024-03-08T02:54:48;25.13;;;19.65;;
21786;SDS011;11055;50.870;4.316;2024-03-08T02:57:15;28.83;;;20.23;;
21786;SDS011;11055;50.870;4.316;2024-03-08T02:59:41;26.85;;;19.90;;
21786;SDS011;11055;50.870;4.316;2024-03-08T03:02:06;27.25;;;20.15;;
21786;SDS011;11055;50.870;4.316;2024-03-08T03:04:32;29.92;;;20.65;;
21786;SDS011;11055;50.870;4.316;2024-03-08T03:07:01;27.08;;;20.48;;
21786;SDS011;11055;50.870;4.316;2024-03-08T03:09:26;30.33;;;20.38;;
21786;SDS011;11055;50.870;4.316;2024-03-08T03:11:56;28.90;;;20.38;;
21786;SDS011;11055;50.870;4.316;2024-03-08T03:14:21;29.27;;;20.77;;
21786;SDS011;11055;50.870;4.316;2024-03-08T03:16:47;29.05;;;20.92;;
21786;SDS011;11055;50.870;4.316;2024-03-08T03:19:13;29.58;;;21.98;;
21786;SDS011;11055;50.870;4.316;2024-03-08T03:21:40;27.67;;;20.83;;
21786;SDS011;11055;50.870;4.316;2024-03-08T03:24:08;29.63;;;22.27;;
21786;SDS011;11055;50.870;4.316;2024-03-08T03:26:40;30.52;;;21.88;;
21786;SDS011;11055;50.870;4.316;2024-03-08T03:29:06;29.08;;;21.52;;
21786;SDS011;11055;50.870;4.316;2024-03-08T03:31:33;27.95;;;20.85;;
21786;SDS011;11055;50.870;4.316;2024-03-08T03:33:59;30.20;;;20.73;;
21786;SDS011;11055;50.870;4.316;2024-03-08T03:36:28;32.30;;;21.30;;
21786;SDS011;11055;50.870;4.316;2024-03-08T03:38:57;27.58;;;21.45;;
21786;SDS011;11055;50.870;4.316;2024-03-08T03:41:41;27.92;;;21.67;;
21786;SDS011;11055;50.870;4.316;2024-03-08T03:44:07;26.77;;;21.15;;
21786;SDS011;11055;50.870;4.316;2024-03-08T03:46:33;29.45;;;21.70;;
21786;SDS011;11055;50.870;4.316;2024-03-08T03:48:59;29.40;;;23.00;;
21786;SDS011;11055;50.870;4.316;2024-03-08T03:51:24;31.77;;;22.00;;
21786;SDS011;11055;50.870;4.316;2024-03-08T03:53:51;30.98;;;22.42;;
21786;SDS011;11055;50.870;4.316;2024-03-08T03:56:18;29.42;;;22.33;;
21786;SDS011;11055;50.870;4.316;2024-03-08T03:58:44;27.27;;;22.20;;
21786;SDS011;11055;50.870;4.316;2024-03-08T04:01:10;29.13;;;21.75;;
21786;SDS011;11055;50.870;4.316;2024-03-08T04:03:35;29.90;;;21.90;;
21786;SDS011;11055;50.870;4.316;2024-03-08T04:06:02;27.58;;;22.05;;
21786;SDS011;11055;50.870;4.316;2024-03-08T04:08:29;27.23;;;22.42;;
21786;SDS011;11055;50.870;4.316;2024-03-08T04:10:56;31.67;;;21.65;;
21786;SDS011;11055;50.870;4.316;2024-03-08T04:13:23;27.30;;;22.13;;
21786;SDS011;11055;50.870;4.316;2024-03-08T04:15:48;28.35;;;22.80;;
21786;SDS011;11055;50.870;4.316;2024-03-08T04:18:14;31.13;;;23.42;;
21786;SDS011;11055;50.870;4.316;2024-03-08T04:20:40;28.70;;;22.40;;
21786;SDS011;11055;50.870;4.316;2024-03-08T04:23:06;28.52;;;22.80;;
21786;SDS011;11055;50.870;4.316;2024-03-08T04:25:32;29.65;;;23.15;;
21786;SDS011;11055;50.870;4.316;2024-03-08T04:27:58;30.85;;;23.45;;
21786;SDS011;11055;50.870;4.316;2024-03-08T04:30:24;28.63;;;22.92;;
21786;SDS011;11055;50.870;4.316;2024-03-08T04:32:49;31.55;;;23.02;;
21786;SDS011;11055;50.870;4.316;2024-03-08T04:35:15;30.23;;;22.38;;
21786;SDS011;11055;50.870;4.316;2024-03-08T04:37:41;29.15;;;23.25;;
21786;SDS011;11055;50.870;4.316;2024-03-08T04:40:07;30.92;;;23.15;;
21786;SDS011;11055;50.870;4.316;2024-03-08T04:42:33;30.48;;;23.38;;
21786;SDS011;11055;50.870;4.316;2024-03-08T04:45:02;28.17;;;22.42;;
21786;SDS011;11055;50.870;4.316;2024-03-08T04:47:29;30.35;;;22.38;;
21786;SDS011;11055;50.870;4.316;2024-03-08T04:49:55;29.50;;;22.88;;
21786;SDS011;11055;50.870;4.316;2024-03-08T04:52:21;28.73;;;22.15;;
21786;SDS011;11055;50.870;4.316;2024-03-08T04:54:47;29.23;;;21.60;;
21786;SDS011;11055;50.870;4.316;2024-03-08T04:57:13;29.40;;;22.13;;
21786;SDS011;11055;50.870;4.316;2024-03-08T04:59:39;31.52;;;23.27;;
21786;SDS011;11055;50.870;4.316;2024-03-08T05:02:05;28.65;;;22.67;;
21786;SDS011;11055;50.870;4.316;2024-03-08T05:04:32;30.90;;;23.00;;
21786;SDS011;11055;50.870;4.316;2024-03-08T05:06:58;31.17;;;22.33;;
21786;SDS011;11055;50.870;4.316;2024-03-08T05:09:26;29.98;;;22.42;;
21786;SDS011;11055;50.870;4.316;2024-03-08T05:11:54;31.58;;;23.25;;
21786;SDS011;11055;50.870;4.316;2024-03-08T05:14:19;33.05;;;23.52;;
21786;SDS011;11055;50.870;4.316;2024-03-08T05:16:48;30.77;;;23.15;;
21786;SDS011;11055;50.870;4.316;2024-03-08T05:19:17;30.27;;;23.10;;
21786;SDS011;11055;50.870;4.316;2024-03-08T05:21:44;29.33;;;22.95;;
21786;SDS011;11055;50.870;4.316;2024-03-08T05:24:13;31.42;;;23.45;;
21786;SDS011;11055;50.870;4.316;2024-03-08T05:26:40;29.40;;;22.35;;
21786;SDS011;11055;50.870;4.316;2024-03-08T05:29:06;28.40;;;22.27;;
21786;SDS011;11055;50.870;4.316;2024-03-08T05:31:50;33.47;;;22.88;;
21786;SDS011;11055;50.870;4.316;2024-03-08T05:34:19;31.48;;;21.77;;
21786;SDS011;11055;50.870;4.316;2024-03-08T05:36:46;30.50;;;22.95;;
21786;SDS011;11055;50.870;4.316;2024-03-08T05:39:14;30.48;;;23.60;;
21786;SDS011;11055;50.870;4.316;2024-03-08T05:41:43;28.50;;;21.33;;
21786;SDS011;11055;50.870;4.316;2024-03-08T05:44:09;32.88;;;23.42;;
21786;SDS011;11055;50.870;4.316;2024-03-08T05:46:36;27.90;;;21.70;;
21786;SDS011;11055;50.870;4.316;2024-03-08T05:49:05;35.65;;;24.55;;
21786;SDS011;11055;50.870;4.316;2024-03-08T05:51:32;27.25;;;21.85;;
21786;SDS011;11055;50.870;4.316;2024-03-08T05:54:00;28.05;;;21.98;;
21786;SDS011;11055;50.870;4.316;2024-03-08T05:58:56;30.02;;;21.98;;
21786;SDS011;11055;50.870;4.316;2024-03-08T06:01:23;30.00;;;22.05;;
21786;SDS011;11055;50.870;4.316;2024-03-08T06:03:55;32.50;;;23.05;;
21786;SDS011;11055;50.870;4.316;2024-03-08T06:06:24;33.25;;;23.17;;
21786;SDS011;11055;50.870;4.316;2024-03-08T06:08:51;31.67;;;22.90;;
21786;SDS011;11055;50.870;4.316;2024-03-08T06:11:18;35.30;;;22.35;;
21786;SDS011;11055;50.870;4.316;2024-03-08T06:13:45;32.67;;;23.30;;
21786;SDS011;11055;50.870;4.316;2024-03-08T06:16:11;30.88;;;21.70;;
21786;SDS011;11055;50.870;4.316;2024-03-08T06:18:37;32.40;;;23.13;;
21786;SDS011;11055;50.870;4.316;2024-03-08T06:21:04;30.15;;;22.40;;
21786;SDS011;11055;50.870;4.316;2024-03-08T06:23:31;32.00;;;23.85;;
21786;SDS011;11055;50.870;4.316;2024-03-08T06:26:06;32.47;;;22.00;;
21786;SDS011;11055;50.870;4.316;2024-03-08T06:28:32;32.65;;;22.17;;
21786;SDS011;11055;50.870;4.316;2024-03-08T06:30:59;33.95;;;23.63;;
21786;SDS011;11055;50.870;4.316;2024-03-08T06:33:26;31.00;;;21.90;;
21786;SDS011;11055;50.870;4.316;2024-03-08T06:35:52;29.88;;;23.33;;
21786;SDS011;11055;50.870;4.316;2024-03-08T06:38:22;29.48;;;22.48;;
21786;SDS011;11055;50.870;4.316;2024-03-08T06:40:48;31.52;;;23.23;;
21786;SDS011;11055;50.870;4.316;2024-03-08T06:43:14;33.50;;;23.55;;
21786;SDS011;11055;50.870;4.316;2024-03-08T06:45:44;33.30;;;22.85;;
21786;SDS011;11055;50.870;4.316;2024-03-08T06:48:22;31.33;;;22.52;;
21786;SDS011;11055;50.870;4.316;2024-03-08T06:50:48;31.75;;;22.77;;
21786;SDS011;11055;50.870;4.316;2024-03-08T06:53:14;33.72;;;23.05;;
21786;SDS011;11055;50.870;4.316;2024-03-08T06:55:40;31.95;;;21.90;;
21786;SDS011;11055;50.870;4.316;2024-03-08T06:58:06;35.42;;;23.05;;
21786;SDS011;11055;50.870;4.316;2024-03-08T07:00:32;31.95;;;22.90;;
21786;SDS011;11055;50.870;4.316;2024-03-08T07:02:58;31.08;;;23.42;;
21786;SDS011;11055;50.870;4.316;2024-03-08T07:05:27;31.65;;;23.60;;
21786;SDS011;11055;50.870;4.316;2024-03-08T07:07:54;29.60;;;21.98;;
21786;SDS011;11055;50.870;4.316;2024-03-08T07:10:20;29.65;;;22.50;;
21786;SDS011;11055;50.870;4.316;2024-03-08T07:12:52;29.90;;;21.58;;
21786;SDS011;11055;50.870;4.316;2024-03-08T07:15:20;31.30;;;21.83;;
21786;SDS011;11055;50.870;4.316;2024-03-08T07:17:48;32.03;;;23.80;;
21786;SDS011;11055;50.870;4.316;2024-03-08T07:20:14;36.33;;;23.15;;
21786;SDS011;11055;50.870;4.316;2024-03-08T07:22:43;31.75;;;22.75;;
21786;SDS011;11055;50.870;4.316;2024-03-08T07:25:13;31.15;;;22.33;;
21786;SDS011;11055;50.870;4.316;2024-03-08T07:27:46;33.75;;;23.35;;
21786;SDS011;11055;50.870;4.316;2024-03-08T07:30:13;32.15;;;22.35;;
21786;SDS011;11055;50.870;4.316;2024-03-08T07:32:58;33.05;;;22.63;;
21786;SDS011;11055;50.870;4.316;2024-03-08T07:35:24;31.65;;;22.60;;
21786;SDS011;11055;50.870;4.316;2024-03-08T07:37:51;35.83;;;21.35;;
21786;SDS011;11055;50.870;4.316;2024-03-08T07:40:20;29.05;;;22.02;;
21786;SDS011;11055;50.870;4.316;2024-03-08T07:42:46;29.13;;;22.25;;
21786;SDS011;11055;50.870;4.316;2024-03-08T07:45:12;33.67;;;23.05;;
21786;SDS011;11055;50.870;4.316;2024-03-08T07:47:38;29.15;;;21.33;;
21786;SDS011;11055;50.870;4.316;2024-03-08T07:50:05;33.83;;;21.38;;
21786;SDS011;11055;50.870;4.316;2024-03-08T07:52:33;33.58;;;22.70;;
21786;SDS011;11055;50.870;4.316;2024-03-08T07:55:00;30.08;;;21.40;;
21786;SDS011;11055;50.870;4.316;2024-03-08T07:57:25;28.33;;;21.02;;
21786;SDS011;11055;50.870;4.316;2024-03-08T07:59:51;30.55;;;21.88;;
21786;SDS011;11055;50.870;4.316;2024-03-08T08:02:17;30.90;;;21.52;;
21786;SDS011;11055;50.870;4.316;2024-03-08T08:04:44;31.17;;;20.80;;
21786;SDS011;11055;50.870;4.316;2024-03-08T08:07:10;28.48;;;20.25;;
21786;SDS011;11055;50.870;4.316;2024-03-08T08:09:36;30.75;;;20.95;;
21786;SDS011;11055;50.870;4.316;2024-03-08T08:12:03;31.70;;;20.73;;
21786;SDS011;11055;50.870;4.316;2024-03-08T08:14:29;27.30;;;19.40;;
21786;SDS011;11055;50.870;4.316;2024-03-08T08:16:56;28.63;;;20.10;;
21786;SDS011;11055;50.870;4.316;2024-03-08T08:19:22;28.55;;;20.13;;
21786;SDS011;11055;50.870;4.316;2024-03-08T08:21:48;28.80;;;20.33;;
21786;SDS011;11055;50.870;4.316;2024-03-08T08:24:14;28.23;;;19.70;;
21786;SDS011;11055;50.870;4.316;2024-03-08T08:26:40;27.50;;;19.25;;
21786;SDS011;11055;50.870;4.316;2024-03-08T08:29:06;31.35;;;20.58;;
21786;SDS011;11055;50.870;4.316;2024-03-08T08:31:32;29.63;;;19.02;;
21786;SDS011;11055;50.870;4.316;2024-03-08T08:33:58;29.90;;;19.13;;
21786;SDS011;11055;50.870;4.316;2024-03-08T08:36:24;27.48;;;20.15;;
21786;SDS011;11055;50.870;4.316;2024-03-08T08:38:50;28.25;;;19.42;;
21786;SDS011;11055;50.870;4.316;2024-03-08T08:41:19;27.40;;;19.65;;
21786;SDS011;11055;50.870;4.316;2024-03-08T08:43:46;27.92;;;19.85;;
21786;SDS011;11055;50.870;4.316;2024-03-08T08:46:16;30.58;;;20.35;;
21786;SDS011;11055;50.870;4.316;2024-03-08T08:48:42;29.05;;;19.35;;
21786;SDS011;11055;50.870;4.316;2024-03-08T08:51:10;30.52;;;20.05;;
21786;SDS011;11055;50.870;4.316;2024-03-08T08:53:39;26.92;;;18.27;;
21786;SDS011;11055;50.870;4.316;2024-03-08T08:56:11;26.67;;;19.02;;
21786;SDS011;11055;50.870;4.316;2024-03-08T08:58:40;26.33;;;18.52;;
21786;SDS011;11055;50.870;4.316;2024-03-08T09:01:09;25.52;;;18.35;;
21786;SDS011;11055;50.870;4.316;2024-03-08T09:03:38;27.95;;;18.40;;
21786;SDS011;11055;50.870;4.316;2024-03-08T09:06:07;26.42;;;17.40;;
21786;SDS011;11055;50.870;4.316;2024-03-08T09:08:36;28.17;;;18.63;;
21786;SDS011;11055;50.870;4.316;2024-03-08T09:11:03;26.98;;;18.85;;
21786;SDS011;11055;50.870;4.316;2024-03-08T09:13:29;25.85;;;18.15;;
21786;SDS011;11055;50.870;4.316;2024-03-08T09:15:55;25.50;;;18.17;;
21786;SDS011;11055;50.870;4.316;2024-03-08T09:18:21;25.33;;;18.02;;
21786;SDS011;11055;50.870;4.316;2024-03-08T09:20:47;25.05;;;17.85;;
21786;SDS011;11055;50.870;4.316;2024-03-08T09:23:12;27.70;;;17.88;;
21786;SDS011;11055;50.870;4.316;2024-03-08T09:25:40;25.88;;;18.48;;
21786;SDS011;11055;50.870;4.316;2024-03-08T09:28:06;25.38;;;17.63;;
21786;SDS011;11055;50.870;4.316;2024-03-08T09:30:31;26.33;;;17.58;;
21786;SDS011;11055;50.870;4.316;2024-03-08T09:32:57;26.48;;;18.27;;
21786;SDS011;11055;50.870;4.316;2024-03-08T09:35:23;24.83;;;17.17;;
21786;SDS011;11055;50.870;4.316;2024-03-08T09:37:49;26.83;;;17.98;;
21786;SDS011;11055;50.870;4.316;2024-03-08T09:40:16;25.17;;;18.33;;
21786;SDS011;11055;50.870;4.316;2024-03-08T09:42:44;24.13;;;17.23;;
21786;SDS011;11055;50.870;4.316;2024-03-08T09:45:13;26.83;;;17.08;;
21786;SDS011;11055;50.870;4.316;2024-03-08T09:47:40;24.00;;;16.70;;
21786;SDS011;11055;50.870;4.316;2024-03-08T09:50:10;22.58;;;16.17;;
21786;SDS011;11055;50.870;4.316;2024-03-08T09:52:40;23.50;;;16.95;;
21786;SDS011;11055;50.870;4.316;2024-03-08T09:55:06;23.27;;;16.73;;
21786;SDS011;11055;50.870;4.316;2024-03-08T09:57:32;26.75;;;17.10;;
21786;SDS011;11055;50.870;4.316;2024-03-08T10:00:00;25.48;;;17.35;;
21786;SDS011;11055;50.870;4.316;2024-03-08T10:02:25;43.03;;;25.02;;
21786;SDS011;11055;50.870;4.316;2024-03-08T10:04:52;20.85;;;15.70;;
21786;SDS011;11055;50.870;4.316;2024-03-08T10:07:18;23.10;;;16.45;;
21786;SDS011;11055;50.870;4.316;2024-03-08T10:09:44;23.77;;;16.35;;
21786;SDS011;11055;50.870;4.316;2024-03-08T10:12:18;22.83;;;16.52;;
21786;SDS011;11055;50.870;4.316;2024-03-08T10:14:45;22.20;;;16.30;;
21786;SDS011;11055;50.870;4.316;2024-03-08T10:17:11;33.67;;;17.02;;
21786;SDS011;11055;50.870;4.316;2024-03-08T10:19:37;22.20;;;16.05;;
21786;SDS011;11055;50.870;4.316;2024-03-08T10:22:04;22.27;;;15.93;;
21786;SDS011;11055;50.870;4.316;2024-03-08T10:24:31;21.63;;;16.35;;
21786;SDS011;11055;50.870;4.316;2024-03-08T10:27:01;21.25;;;15.80;;
21786;SDS011;11055;50.870;4.316;2024-03-08T10:29:30;23.25;;;17.42;;
21786;SDS011;11055;50.870;4.316;2024-03-08T10:31:58;23.13;;;16.10;;
21786;SDS011;11055;50.870;4.316;2024-03-08T10:34:24;21.63;;;15.68;;
21786;SDS011;11055;50.870;4.316;2024-03-08T10:36:51;22.23;;;16.63;;
21786;SDS011;11055;50.870;4.316;2024-03-08T10:41:43;21.95;;;16.20;;
21786;SDS011;11055;50.870;4.316;2024-03-08T10:44:18;25.83;;;16.23;;
21786;SDS011;11055;50.870;4.316;2024-03-08T10:46:59;25.58;;;16.27;;
21786;SDS011;11055;50.870;4.316;2024-03-08T10:52:20;22.67;;;15.35;;
21786;SDS011;11055;50.870;4.316;2024-03-08T10:54:47;19.50;;;15.10;;
21786;SDS011;11055;50.870;4.316;2024-03-08T10:57:14;27.63;;;16.50;;
21786;SDS011;11055;50.870;4.316;2024-03-08T10:59:44;19.40;;;15.18;;
21786;SDS011;11055;50.870;4.316;2024-03-08T11:02:12;20.90;;;15.38;;
21786;SDS011;11055;50.870;4.316;2024-03-08T11:04:38;22.45;;;16.27;;
21786;SDS011;11055;50.870;4.316;2024-03-08T11:07:04;22.30;;;15.43;;
21786;SDS011;11055;50.870;4.316;2024-03-08T11:09:35;22.95;;;15.60;;
21786;SDS011;11055;50.870;4.316;2024-03-08T11:14:51;23.15;;;15.38;;
21786;SDS011;11055;50.870;4.316;2024-03-08T11:19:54;20.50;;;15.68;;
21786;SDS011;11055;50.870;4.316;2024-03-08T11:22:27;22.13;;;16.20;;
21786;SDS011;11055;50.870;4.316;2024-03-08T11:25:02;20.55;;;16.27;;
21786;SDS011;11055;50.870;4.316;2024-03-08T11:27:35;22.90;;;16.27;;
21786;SDS011;11055;50.870;4.316;2024-03-08T11:30:05;22.92;;;15.32;;
21786;SDS011;11055;50.870;4.316;2024-03-08T11:32:43;26.30;;;16.25;;
21786;SDS011;11055;50.870;4.316;2024-03-08T11:35:19;20.73;;;14.98;;
21786;SDS011;11055;50.870;4.316;2024-03-08T11:37:46;20.73;;;15.63;;
21786;SDS011;11055;50.870;4.316;2024-03-08T11:40:13;22.20;;;15.85;;
21786;SDS011;11055;50.870;4.316;2024-03-08T11:42:44;24.20;;;16.23;;
21786;SDS011;11055;50.870;4.316;2024-03-08T11:45:13;21.38;;;15.65;;
21786;SDS011;11055;50.870;4.316;2024-03-08T11:47:43;19.42;;;15.30;;
21786;SDS011;11055;50.870;4.316;2024-03-08T11:50:12;21.13;;;15.50;;
21786;SDS011;11055;50.870;4.316;2024-03-08T11:52:39;25.15;;;16.10;;
21786;SDS011;11055;50.870;4.316;2024-03-08T11:55:05;21.65;;;15.68;;
21786;SDS011;11055;50.870;4.316;2024-03-08T11:57:31;20.50;;;15.43;;
21786;SDS011;11055;50.870;4.316;2024-03-08T11:59:58;23.48;;;15.93;;
21786;SDS011;11055;50.870;4.316;2024-03-08T12:02:33;18.40;;;14.75;;
21786;SDS011;11055;50.870;4.316;2024-03-08T12:05:02;20.00;;;14.30;;
21786;SDS011;11055;50.870;4.316;2024-03-08T12:07:29;19.52;;;15.07;;
21786;SDS011;11055;50.870;4.316;2024-03-08T12:10:15;18.20;;;15.80;;
21786;SDS011;11055;50.870;4.316;2024-03-08T12:12:46;17.92;;;15.00;;
21786;SDS011;11055;50.870;4.316;2024-03-08T12:15:17;18.10;;;15.27;;
21786;SDS011;11055;50.870;4.316;2024-03-08T12:17:45;20.13;;;15.32;;
21786;SDS011;11055;50.870;4.316;2024-03-08T12:20:16;18.65;;;15.93;;
21786;SDS011;11055;50.870;4.316;2024-03-08T12:22:54;18.80;;;15.65;;
21786;SDS011;11055;50.870;4.316;2024-03-08T12:25:32;17.27;;;15.48;;
21786;SDS011;11055;50.870;4.316;2024-03-08T12:28:08;16.77;;;14.98;;
21786;SDS011;11055;50.870;4.316;2024-03-08T12:30:35;16.40;;;14.70;;
21786;SDS011;11055;50.870;4.316;2024-03-08T12:33:13;17.77;;;15.95;;
21786;SDS011;11055;50.870;4.316;2024-03-08T12:35:39;16.58;;;14.95;;
21786;SDS011;11055;50.870;4.316;2024-03-08T12:38:05;16.73;;;14.98;;
21786;SDS011;11055;50.870;4.316;2024-03-08T12:40:33;16.77;;;14.75;;
21786;SDS011;11055;50.870;4.316;2024-03-08T12:42:59;43.95;;;16.85;;
21786;SDS011;11055;50.870;4.316;2024-03-08T12:45:26;16.73;;;14.70;;
21786;SDS011;11055;50.870;4.316;2024-03-08T12:47:55;16.92;;;15.27;;
21786;SDS011;11055;50.870;4.316;2024-03-08T12:50:22;15.77;;;14.35;;
21786;SDS011;11055;50.870;4.316;2024-03-08T12:52:49;16.27;;;14.68;;
21786;SDS011;11055;50.870;4.316;2024-03-08T12:55:15;18.27;;;16.13;;
21786;SDS011;11055;50.870;4.316;2024-03-08T12:57:43;18.45;;;14.75;;
21786;SDS011;11055;50.870;4.316;2024-03-08T13:00:09;19.58;;;15.40;;
21786;SDS011;11055;50.870;4.316;2024-03-08T13:02:46;16.80;;;14.60;;
21786;SDS011;11055;50.870;4.316;2024-03-08T13:05:12;16.73;;;14.98;;
21786;SDS011;11055;50.870;4.316;2024-03-08T13:07:39;15.88;;;14.18;;
21786;SDS011;11055;50.870;4.316;2024-03-08T13:10:06;16.85;;;15.15;;
21786;SDS011;11055;50.870;4.316;2024-03-08T13:12:32;16.42;;;14.70;;
21786;SDS011;11055;50.870;4.316;2024-03-08T13:15:00;16.60;;;14.95;;
21786;SDS011;11055;50.870;4.316;2024-03-08T13:17:25;16.92;;;14.45;;
21786;SDS011;11055;50.870;4.316;2024-03-08T13:19:51;15.55;;;13.60;;
21786;SDS011;11055;50.870;4.316;2024-03-08T13:24:49;15.95;;;13.80;;
21786;SDS011;11055;50.870;4.316;2024-03-08T13:27:17;16.05;;;14.35;;
21786;SDS011;11055;50.870;4.316;2024-03-08T13:29:47;16.20;;;14.20;;
21786;SDS011;11055;50.870;4.316;2024-03-08T13:32:14;15.13;;;13.65;;
21786;SDS011;11055;50.870;4.316;2024-03-08T13:34:41;15.73;;;14.20;;
21786;SDS011;11055;50.870;4.316;2024-03-08T13:37:07;17.92;;;13.63;;
21786;SDS011;11055;50.870;4.316;2024-03-08T13:39:35;17.83;;;15.85;;
21786;SDS011;11055;50.870;4.316;2024-03-08T13:42:13;15.85;;;14.40;;
21786;SDS011;11055;50.870;4.316;2024-03-08T13:44:44;15.77;;;13.95;;
21786;SDS011;11055;50.870;4.316;2024-03-08T13:47:11;16.17;;;14.50;;
21786;SDS011;11055;50.870;4.316;2024-03-08T13:49:38;15.50;;;14.00;;
21786;SDS011;11055;50.870;4.316;2024-03-08T13:52:04;15.15;;;13.55;;
21786;SDS011;11055;50.870;4.316;2024-03-08T13:54:30;14.43;;;13.13;;
21786;SDS011;11055;50.870;4.316;2024-03-08T13:56:57;14.70;;;13.30;;
21786;SDS011;11055;50.870;4.316;2024-03-08T13:59:23;15.35;;;13.80;;
21786;SDS011;11055;50.870;4.316;2024-03-08T14:01:49;15.98;;;14.15;;
21786;SDS011;11055;50.870;4.316;2024-03-08T14:04:15;14.45;;;12.93;;
21786;SDS011;11055;50.870;4.316;2024-03-08T14:06:43;14.95;;;13.00;;
21786;SDS011;11055;50.870;4.316;2024-03-08T14:09:10;17.90;;;13.70;;
21786;SDS011;11055;50.870;4.316;2024-03-08T14:11:43;14.90;;;13.30;;
21786;SDS011;11055;50.870;4.316;2024-03-08T14:14:12;14.90;;;13.30;;
21786;SDS011;11055;50.870;4.316;2024-03-08T14:16:38;18.52;;;14.35;;
21786;SDS011;11055;50.870;4.316;2024-03-08T14:19:04;16.02;;;14.32;;
21786;SDS011;11055;50.870;4.316;2024-03-08T14:21:31;15.23;;;13.60;;
21786;SDS011;11055;50.870;4.316;2024-03-08T14:23:57;15.35;;;13.75;;
21786;SDS011;11055;50.870;4.316;2024-03-08T14:26:22;16.23;;;13.73;;
21786;SDS011;11055;50.870;4.316;2024-03-08T14:28:48;19.25;;;13.48;;
21786;SDS011;11055;50.870;4.316;2024-03-08T14:31:17;15.90;;;14.32;;
21786;SDS011;11055;50.870;4.316;2024-03-08T14:33:44;15.88;;;14.18;;
21786;SDS011;11055;50.870;4.316;2024-03-08T14:36:14;18.45;;;14.35;;
21786;SDS011;11055;50.870;4.316;2024-03-08T14:38:42;19.48;;;13.63;;
21786;SDS011;11055;50.870;4.316;2024-03-08T14:41:08;15.90;;;12.95;;